Auburndale, Massachusetts
Current Conditions -  °F | °C
As of 4:05 PM on Wednesday 26 Nov 2014 (Local Time) from KBOS Reporting Station
Ice Pellets Ice Pellets  
Wind Chill: 22°   Ceiling: 700
Heat Index: 34°   Visibility: 2mi
Dew Point: 34°   Wind: 23mph
Humidity: 100%   Direction: 30°NNE
Pressure: 29.95"   Gusts: 29mph
Location:  42.35°N, 70.95°W
Report Text: KBOS 262105Z 03020G25KT 2SM -PLRA BR BKN007 OVC013 01/01 A2995 RMK AO2 PK WND 03026/2055 SFC VIS 3 P0001 $
Loading
Personal Weather Stations






























Interactive Weather Map New forecast layout! Learn more

10-Day Weather Forecast

Advertisements
Track Severe Weather on mobile